Time;durP1;ratioP1;P1;durP2;ratioP2;P2;SDS_P1;SDS_P2;PMS_P1;PMS_P2;Temp;Humidity;BMP_temperature;BMP_pressure;BME280_temperature;BME280_humidity;BME280_pressure;Samples;Min_cycle;Max_cycle;Signal;HPM_P1;HPM_P2
2022/03/25 00:02:06;;;;;;;15.63;10.17;;;;;;;10.02;48.45;96251.37;4384797;32;20263;-59
2022/03/25 00:04:32;;;;;;;12.77;9.67;;;;;;;10.03;48.07;96251.13;4376656;32;20248;-59
2022/03/25 00:06:58;;;;;;;13.93;9.83;;;;;;;10.03;47.88;96250.31;4364287;32;20204;-60
2022/03/25 00:09:23;;;;;;;14.53;9.93;;;;;;;10.02;47.68;96254.81;4379628;32;20232;-59
2022/03/25 00:11:48;;;;;;;12.13;9.00;;;;;;;9.69;48.27;96252.72;4374832;32;20203;-60
2022/03/25 00:14:14;;;;;;;13.27;9.87;;;;;;;9.80;48.11;96251.66;4363449;32;20290;-60
2022/03/25 00:16:40;;;;;;;10.90;9.33;;;;;;;9.50;48.66;96253.22;4360655;32;20249;-60
2022/03/25 00:19:06;;;;;;;13.80;10.07;;;;;;;9.80;48.26;96247.16;4363608;32;20277;-60
2022/03/25 00:21:31;;;;;;;10.10;8.33;;;;;;;9.87;48.12;96249.53;4363769;32;20346;-60
2022/03/25 00:23:56;;;;;;;14.87;9.43;;;;;;;9.70;48.54;96246.38;4377107;32;20208;-60
2022/03/25 00:26:22;;;;;;;13.30;9.43;;;;;;;9.88;48.23;96243.97;4379444;32;20190;-59
2022/03/25 00:28:47;;;;;;;13.03;9.60;;;;;;;9.85;48.28;96244.50;4380051;32;20180;-59
2022/03/25 00:31:13;;;;;;;12.17;9.50;;;;;;;9.95;48.05;96241.06;4386450;32;20219;-60
2022/03/25 00:33:39;;;;;;;11.53;9.27;;;;;;;9.94;48.16;96240.28;4370061;32;20238;-59
2022/03/25 00:36:05;;;;;;;13.83;9.87;;;;;;;9.86;48.29;96235.50;4384275;32;20180;-60
2022/03/25 00:38:30;;;;;;;12.20;9.30;;;;;;;9.86;48.42;96235.50;4375733;32;20334;-60
2022/03/25 00:40:57;;;;;;;12.30;9.43;;;;;;;9.79;48.80;96240.25;4363846;32;20199;-62
2022/03/25 00:43:24;;;;;;;11.37;10.17;;;;;;;9.82;48.77;96233.63;4365697;32;20203;-62
2022/03/25 00:45:50;;;;;;;15.03;10.20;;;;;;;9.72;49.10;96231.78;4375824;32;20296;-62
2022/03/25 00:48:15;;;;;;;15.80;9.47;;;;;;;9.72;49.05;96233.66;4377124;32;20326;-62
2022/03/25 00:50:41;;;;;;;13.60;10.30;;;;;;;9.69;49.01;96234.19;4376520;32;20184;-62
2022/03/25 00:53:08;;;;;;;12.37;9.77;;;;;;;9.64;49.17;96233.09;4370126;32;20180;-62
2022/03/25 00:55:34;;;;;;;12.60;9.57;;;;;;;9.63;49.27;96236.00;4387885;32;20273;-63
2022/03/25 00:58:00;;;;;;;13.80;9.93;;;;;;;9.67;49.12;96231.00;4368062;32;20316;-63
2022/03/25 01:00:25;;;;;;;17.00;9.57;;;;;;;9.53;49.50;96230.72;4390087;32;20291;-63
2022/03/25 01:02:51;;;;;;;10.00;9.00;;;;;;;9.53;49.42;96230.72;4380176;32;20188;-62
2022/03/25 01:05:17;;;;;;;11.33;9.27;;;;;;;9.52;49.36;96227.28;4377255;32;20180;-62
2022/03/25 01:07:43;;;;;;;13.30;9.17;;;;;;;9.49;49.30;96227.00;4376371;32;20176;-62
2022/03/25 01:10:09;;;;;;;10.67;8.97;;;;;;;9.51;49.18;96223.03;4353583;32;20325;-62
2022/03/25 01:12:35;;;;;;;12.63;8.57;;;;;;;9.43;49.43;96225.41;4385849;32;20277;-62
2022/03/25 01:15:00;;;;;;;11.67;8.60;;;;;;;9.35;49.67;96223.28;4362895;32;20181;-62
2022/03/25 01:17:26;;;;;;;10.33;8.33;;;;;;;9.12;50.03;96232.50;4360753;32;20195;-62
2022/03/25 01:19:51;;;;;;;10.07;8.27;;;;;;;9.08;50.23;96224.28;4364578;32;20196;-62
2022/03/25 01:22:16;;;;;;;9.47;8.50;;;;;;;9.14;50.04;96231.19;4377248;32;20193;-62
2022/03/25 01:24:42;;;;;;;12.13;8.77;;;;;;;9.24;49.81;96225.91;4384411;32;20251;-62
2022/03/25 01:27:07;;;;;;;13.87;8.90;;;;;;;9.25;50.01;96227.50;4380395;32;20224;-62
2022/03/25 01:29:32;;;;;;;11.17;7.70;;;;;;;9.28;50.30;96226.97;4370786;32;20251;-62
2022/03/25 01:31:59;;;;;;;13.43;8.77;;;;;;;9.20;50.65;96227.47;4389495;32;20247;-61
2022/03/25 01:34:24;;;;;;;13.53;8.43;;;;;;;9.09;50.96;96222.44;4376991;32;20189;-62
2022/03/25 01:36:50;;;;;;;12.87;9.23;;;;;;;9.09;50.93;96220.59;4375425;32;20269;-62
2022/03/25 01:39:15;;;;;;;14.60;8.57;;;;;;;9.07;50.92;96221.91;4381976;32;20197;-62
2022/03/25 01:41:41;;;;;;;8.87;7.97;;;;;;;9.05;50.86;96218.72;4390826;32;20225;-62
2022/03/25 01:44:09;;;;;;;10.90;9.17;;;;;;;9.09;50.66;96225.88;4374572;32;20181;-61
2022/03/25 01:46:36;;;;;;;9.00;8.13;;;;;;;9.08;51.13;96223.50;4365133;32;20184;-61
2022/03/25 01:49:02;;;;;;;10.00;7.63;;;;;;;8.89;51.08;96223.97;4375169;32;20314;-61
2022/03/25 01:51:32;;;;;;;9.27;8.37;;;;;;;8.90;50.86;96222.91;4388433;32;20273;-63
2022/03/25 01:54:08;;;;;;;8.57;7.23;;;;;;;8.87;50.76;96215.50;4374077;32;20192;-63
2022/03/25 01:56:34;;;;;;;11.03;8.00;;;;;;;8.70;50.97;96216.75;4362040;32;20295;-61
2022/03/25 01:58:59;;;;;;;13.23;7.90;;;;;;;8.84;50.66;96218.66;4374179;32;20331;-62
2022/03/25 02:01:25;;;;;;;9.57;7.70;;;;;;;8.95;50.38;96214.97;4372015;32;20208;-65
2022/03/25 02:03:50;;;;;;;9.10;8.13;;;;;;;8.91;50.45;96213.94;4376167;32;20188;-62
2022/03/25 02:06:15;;;;;;;10.87;8.37;;;;;;;8.83;50.56;96217.06;4383284;32;20216;-62
2022/03/25 02:08:41;;;;;;;8.47;7.67;;;;;;;8.92;50.60;96215.53;4378552;32;20256;-62
2022/03/25 02:11:09;;;;;;;8.93;7.30;;;;;;;8.90;50.59;96211.53;4376037;32;20200;-63
2022/03/25 02:13:34;;;;;;;8.80;7.47;;;;;;;8.95;50.30;96214.19;4375360;32;20181;-61
2022/03/25 02:15:59;;;;;;;7.60;6.93;;;;;;;8.87;50.66;96204.91;4372393;32;20280;-63
2022/03/25 02:18:25;;;;;;;7.73;7.10;;;;;;;8.83;50.80;96201.19;4372643;32;20219;-63
2022/03/25 02:20:50;;;;;;;8.53;7.77;;;;;;;8.59;51.60;96213.25;4381542;32;20176;-62
2022/03/25 02:23:16;;;;;;;8.70;7.43;;;;;;;8.46;52.08;96205.81;4382369;32;20215;-62
2022/03/25 02:25:42;;;;;;;8.43;7.50;;;;;;;8.31;52.41;96213.66;4361687;32;20193;-62
2022/03/25 02:28:08;;;;;;;7.77;7.07;;;;;;;8.60;51.64;96220.16;4373915;32;20230;-62
2022/03/25 02:30:35;;;;;;;10.47;8.00;;;;;;;8.59;51.82;96216.72;4361532;32;20277;-62
2022/03/25 02:33:02;;;;;;;8.67;7.87;;;;;;;8.49;52.03;96216.69;4371185;32;20273;-62
2022/03/25 02:35:44;;;;;;;8.57;7.77;;;;;;;8.43;52.09;96212.41;4361391;32;20370;-62
2022/03/25 02:38:12;;;;;;;9.67;7.30;;;;;;;8.51;52.12;96219.06;4366861;32;20337;-62
2022/03/25 02:40:39;;;;;;;9.20;7.43;;;;;;;8.50;52.25;96217.47;4362512;32;20285;-62
2022/03/25 02:43:05;;;;;;;8.93;7.70;;;;;;;8.24;52.89;96219.94;4359706;32;20293;-61
2022/03/25 02:45:30;;;;;;;8.73;7.10;;;;;;;8.30;52.79;96220.78;4369591;32;20381;-62
2022/03/25 02:47:56;;;;;;;8.03;7.23;;;;;;;8.38;52.79;96214.22;4368236;32;20277;-62
2022/03/25 02:50:21;;;;;;;8.50;7.73;;;;;;;8.35;53.03;96215.53;4362945;32;20214;-62
2022/03/25 02:52:47;;;;;;;7.60;6.90;;;;;;;8.27;53.21;96219.44;4362013;32;20176;-61
2022/03/25 02:55:12;;;;;;;8.30;7.50;;;;;;;8.32;53.43;96217.84;4385957;32;20203;-62
2022/03/25 02:57:37;;;;;;;8.47;7.40;;;;;;;8.46;52.93;96219.03;4378697;32;20200;-62
2022/03/25 03:00:09;;;;;;;14.60;7.97;;;;;;;8.51;52.80;96213.78;4375023;32;20191;-62
2022/03/25 03:02:35;;;;;;;11.73;7.53;;;;;;;8.57;52.68;96223.31;4373482;32;20224;-62
2022/03/25 03:05:02;;;;;;;10.27;7.70;;;;;;;8.54;52.84;96219.31;4379388;32;20272;-62
2022/03/25 03:07:27;;;;;;;7.80;6.87;;;;;;;8.41;53.03;96222.44;4393726;32;20277;-63
2022/03/25 03:09:52;;;;;;;12.83;7.40;;;;;;;8.24;53.43;96219.94;4373414;32;20310;-62
2022/03/25 03:12:18;;;;;;;7.80;7.00;;;;;;;8.27;53.64;96216.78;4389326;32;20202;-62
2022/03/25 03:14:43;;;;;;;7.13;6.43;;;;;;;8.26;53.76;96222.34;4365169;32;20199;-63
2022/03/25 03:17:10;;;;;;;7.17;6.47;;;;;;;8.28;53.71;96221.03;4378519;32;20270;-63
2022/03/25 03:19:35;;;;;;;7.23;6.63;;;;;;;8.20;54.09;96220.72;4377447;32;20207;-62
2022/03/25 03:22:01;;;;;;;7.40;6.77;;;;;;;8.23;54.02;96218.34;4378993;32;20339;-62
2022/03/25 03:24:26;;;;;;;8.70;6.80;;;;;;;8.25;53.98;96226.03;4377233;32;20180;-63
2022/03/25 03:26:52;;;;;;;7.07;6.00;;;;;;;8.33;53.83;96220.28;4378758;32;20193;-61
2022/03/25 03:29:19;;;;;;;7.40;6.80;;;;;;;8.48;53.52;96216.94;4378354;32;20251;-62
2022/03/25 03:31:45;;;;;;;6.90;6.20;;;;;;;8.30;54.08;96223.44;4378821;32;20299;-62
2022/03/25 03:34:10;;;;;;;6.53;6.03;;;;;;;8.24;54.27;96225.22;4377098;32;20288;-62
2022/03/25 03:36:36;;;;;;;6.60;6.10;;;;;;;7.98;54.74;96212.91;4376461;32;20192;-62
2022/03/25 03:39:01;;;;;;;8.43;6.90;;;;;;;7.72;55.61;96221.69;4370254;32;20197;-62
2022/03/25 03:41:28;;;;;;;7.37;6.67;;;;;;;7.90;55.56;96216.00;4364889;32;20192;-63
2022/03/25 03:43:53;;;;;;;7.33;6.60;;;;;;;7.93;55.35;96215.50;4386559;32;20188;-62
2022/03/25 03:46:19;;;;;;;7.07;6.43;;;;;;;8.07;55.07;96215.88;4366189;32;20299;-62
2022/03/25 03:48:44;;;;;;;7.87;7.17;;;;;;;8.05;55.02;96213.50;4383045;32;21786;-62
2022/03/25 03:51:10;;;;;;;6.57;5.97;;;;;;;8.01;55.27;96209.75;4379472;32;20289;-62
2022/03/25 03:53:35;;;;;;;10.03;6.47;;;;;;;7.96;55.62;96209.72;4372046;32;20184;-62
2022/03/25 03:56:01;;;;;;;8.23;6.30;;;;;;;8.01;55.35;96214.25;4377234;32;20283;-62
2022/03/25 03:58:26;;;;;;;7.57;6.70;;;;;;;8.21;54.83;96217.00;4371835;32;20202;-62
2022/03/25 04:00:51;;;;;;;11.37;7.17;;;;;;;8.26;54.55;96212.56;4383990;32;20181;-62
2022/03/25 04:03:17;;;;;;;7.40;5.83;;;;;;;8.26;54.55;96212.56;4378475;32;20172;-62
2022/03/25 04:05:44;;;;;;;7.33;6.30;;;;;;;8.34;54.45;96213.94;4373886;32;20189;-62
2022/03/25 04:08:09;;;;;;;9.30;6.63;;;;;;;8.40;54.29;96209.47;4362943;32;20272;-62
2022/03/25 04:10:35;;;;;;;10.03;6.13;;;;;;;8.28;54.64;96209.66;4375489;32;20277;-62
2022/03/25 04:13:00;;;;;;;7.67;6.00;;;;;;;8.14;55.01;96209.31;4372252;32;20190;-62
2022/03/25 04:15:26;;;;;;;6.57;5.97;;;;;;;8.13;55.05;96207.72;4378739;32;20203;-63
2022/03/25 04:17:51;;;;;;;10.23;6.90;;;;;;;7.97;55.54;96207.88;4391611;32;20203;-62
2022/03/25 04:20:18;;;;;;;6.73;5.97;;;;;;;8.09;55.14;96211.94;4376688;32;20288;-62
2022/03/25 04:22:45;;;;;;;6.97;6.40;;;;;;;8.04;55.31;96211.09;4363137;32;20197;-62
2022/03/25 04:25:11;;;;;;;6.37;5.77;;;;;;;8.15;54.99;96210.91;4363238;32;20336;-62
2022/03/25 04:27:50;;;;;;;6.40;5.90;;;;;;;8.01;55.43;96212.41;4363046;32;20289;-62
2022/03/25 04:30:22;;;;;;;6.13;5.60;;;;;;;8.09;55.45;96211.13;4384712;32;20438;-62
2022/03/25 04:32:48;;;;;;;8.87;6.43;;;;;;;8.02;55.77;96202.63;4367933;32;20281;-62
2022/03/25 04:35:13;;;;;;;8.20;5.90;;;;;;;8.12;55.52;96210.59;4376569;32;20294;-62
2022/03/25 04:37:39;;;;;;;6.53;5.90;;;;;;;8.18;55.27;96209.59;4376746;32;20354;-62
2022/03/25 04:40:05;;;;;;;6.17;5.67;;;;;;;8.12;55.41;96207.97;4372412;32;20203;-62
2022/03/25 04:42:30;;;;;;;6.43;5.73;;;;;;;8.13;55.38;96207.72;4374409;32;20265;-62
2022/03/25 04:44:55;;;;;;;7.47;6.23;;;;;;;7.88;56.24;96204.94;4377566;32;20200;-63
2022/03/25 04:47:21;;;;;;;6.77;6.07;;;;;;;7.84;56.42;96203.84;4385799;32;20184;-62
2022/03/25 04:49:46;;;;;;;6.33;5.73;;;;;;;7.98;55.85;96204.97;4366491;32;20286;-62
2022/03/25 04:52:11;;;;;;;6.70;5.43;;;;;;;7.88;56.28;96203.09;4363311;32;20211;-62
2022/03/25 04:54:36;;;;;;;7.27;6.10;;;;;;;7.80;56.61;96206.19;4376383;32;20192;-62
2022/03/25 04:57:03;;;;;;;6.33;5.73;;;;;;;7.94;56.17;96203.91;4380201;32;20262;-62
2022/03/25 04:59:28;;;;;;;8.63;6.57;;;;;;;7.93;56.39;96208.38;4380400;32;20184;-61
2022/03/25 05:01:55;;;;;;;6.60;5.43;;;;;;;8.00;56.31;96208.16;4385915;32;20299;-62
2022/03/25 05:04:20;;;;;;;9.17;5.87;;;;;;;8.01;56.17;96215.03;4379756;32;20194;-62
2022/03/25 05:06:46;;;;;;;9.10;5.70;;;;;;;7.88;56.51;96215.50;4391825;32;20268;-62
2022/03/25 05:09:11;;;;;;;8.37;6.57;;;;;;;7.79;56.73;96207.22;4371864;32;20180;-62
2022/03/25 05:11:37;;;;;;;14.17;10.27;;;;;;;7.40;58.07;96214.59;4378635;32;20201;-62
2022/03/25 05:14:03;;;;;;;8.23;6.40;;;;;;;7.54;57.77;96218.38;4372727;32;20222;-62
2022/03/25 05:16:28;;;;;;;6.00;5.40;;;;;;;7.53;57.75;96219.44;4375777;32;20190;-62
2022/03/25 05:18:54;;;;;;;6.03;5.53;;;;;;;7.65;57.52;96224.56;4378700;32;20199;-62
2022/03/25 05:21:19;;;;;;;6.03;5.43;;;;;;;7.50;57.77;96219.13;4389139;32;20207;-62
2022/03/25 05:23:45;;;;;;;6.73;5.53;;;;;;;7.53;57.79;96219.44;4384781;32;20347;-62
2022/03/25 05:26:10;;;;;;;11.30;5.57;;;;;;;7.49;58.10;96226.25;4362324;32;20188;-62
2022/03/25 05:28:35;;;;;;;6.53;5.93;;;;;;;7.62;57.82;96216.34;4376260;32;20281;-62
2022/03/25 05:31:00;;;;;;;7.10;5.50;;;;;;;7.84;56.84;96224.97;4372154;32;20205;-62
2022/03/25 05:33:26;;;;;;;12.57;6.13;;;;;;;7.90;56.93;96219.44;4379923;32;20196;-62
2022/03/25 05:35:51;;;;;;;8.47;5.83;;;;;;;7.83;57.04;96231.31;4378186;32;20208;-62
2022/03/25 05:38:16;;;;;;;7.17;6.03;;;;;;;7.87;57.02;96229.75;4376463;32;20240;-62
2022/03/25 05:40:43;;;;;;;6.60;5.90;;;;;;;7.83;57.04;96223.38;4363027;32;20192;-62
2022/03/25 05:43:08;;;;;;;6.23;5.63;;;;;;;7.68;57.45;96231.19;4390117;32;20196;-62
2022/03/25 05:45:33;;;;;;;7.83;6.10;;;;;;;7.81;57.25;96242.13;4377232;32;20344;-62
2022/03/25 05:47:59;;;;;;;6.73;6.13;;;;;;;7.62;57.83;96232.19;4376668;32;20216;-62
2022/03/25 05:50:24;;;;;;;7.37;6.03;;;;;;;7.56;57.86;96240.06;4384136;32;20196;-62
2022/03/25 05:52:49;;;;;;;6.20;5.60;;;;;;;7.34;58.67;96241.97;4384483;32;20260;-62
2022/03/25 05:55:19;;;;;;;8.57;5.77;;;;;;;7.45;58.55;96240.22;4362463;32;20279;-62
2022/03/25 05:57:45;;;;;;;6.70;6.03;;;;;;;7.67;58.21;96240.16;4376345;32;20240;-62
2022/03/25 06:00:11;;;;;;;6.43;5.83;;;;;;;7.65;58.11;96248.31;4370045;32;20303;-62
2022/03/25 06:02:36;;;;;;;7.93;6.00;;;;;;;7.46;58.63;96249.75;4386571;32;20212;-62
2022/03/25 06:05:02;;;;;;;8.43;6.40;;;;;;;7.58;58.61;96248.53;4361980;32;20291;-62
2022/03/25 06:07:35;;;;;;;7.90;5.87;;;;;;;7.79;57.72;96243.41;4379111;32;20208;-63
2022/03/25 06:10:01;;;;;;;7.00;6.27;;;;;;;7.87;57.42;96250.87;4380301;32;20229;-62
2022/03/25 06:12:26;;;;;;;7.67;6.80;;;;;;;7.91;57.20;96246.66;4380920;32;20284;-62
2022/03/25 06:14:51;;;;;;;7.73;5.73;;;;;;;7.76;57.32;96243.91;4383613;32;20203;-62
2022/03/25 06:17:17;;;;;;;8.77;6.43;;;;;;;7.79;57.51;96244.22;4359640;32;20196;-61
2022/03/25 06:19:42;;;;;;;6.83;5.97;;;;;;;7.41;58.62;96242.56;4359745;32;20192;-61
2022/03/25 06:22:07;;;;;;;6.67;6.03;;;;;;;7.51;58.57;96247.94;4375089;32;20184;-61
2022/03/25 06:24:32;;;;;;;12.60;6.83;;;;;;;7.46;58.60;96250.53;4365449;32;20204;-61
2022/03/25 06:26:58;;;;;;;12.90;6.53;;;;;;;7.41;58.89;96252.34;4362127;32;20261;-62
2022/03/25 06:29:23;;;;;;;11.77;7.03;;;;;;;7.53;58.92;96251.13;4379381;32;20204;-61
2022/03/25 06:31:48;;;;;;;13.60;7.27;;;;;;;7.44;59.48;96255.28;4371403;32;20243;-61
2022/03/25 06:34:20;;;;;;;12.63;7.53;;;;;;;7.65;59.08;96250.97;4375992;32;20200;-62
2022/03/25 06:36:45;;;;;;;11.83;7.10;;;;;;;7.69;58.97;96246.00;4373992;32;22107;-62
2022/03/25 06:39:11;;;;;;;13.13;7.43;;;;;;;7.93;58.45;96244.56;4374156;32;20288;-62
2022/03/25 06:41:36;;;;;;;15.50;7.00;;;;;;;7.88;58.14;96250.63;4375704;32;20252;-62
2022/03/25 06:44:01;;;;;;;12.50;8.10;;;;;;;8.00;58.17;96250.44;4373572;32;20180;-61
2022/03/25 06:46:27;;;;;;;9.60;7.57;;;;;;;8.13;57.81;96255.28;4373733;32;20173;-62
2022/03/25 06:48:52;;;;;;;10.10;6.90;;;;;;;8.06;57.78;96260.00;4376103;32;20207;-62
2022/03/25 06:51:18;;;;;;;8.97;6.63;;;;;;;8.17;57.57;96260.84;4377484;32;20192;-61
2022/03/25 06:53:44;;;;;;;12.97;7.90;;;;;;;8.21;57.28;96256.66;4386490;32;20207;-62
2022/03/25 06:56:10;;;;;;;9.17;6.87;;;;;;;8.43;57.07;96254.72;4360879;32;20177;-62
2022/03/25 06:58:37;;;;;;;9.47;6.87;;;;;;;8.34;56.70;96258.06;4374008;32;20277;-62
2022/03/25 07:01:05;;;;;;;10.23;6.70;;;;;;;8.34;56.78;96264.16;4375290;32;20195;-62
2022/03/25 07:03:32;;;;;;;14.00;7.40;;;;;;;8.43;56.81;96260.00;4387783;32;20296;-62
2022/03/25 07:06:00;;;;;;;13.57;8.50;;;;;;;8.34;57.21;96272.09;4374304;32;20322;-62
2022/03/25 07:08:29;;;;;;;10.67;7.73;;;;;;;8.62;56.62;96270.94;4375806;32;20303;-62
2022/03/25 07:10:55;;;;;;;11.40;7.33;;;;;;;8.71;56.29;96268.63;4372373;32;20288;-62
2022/03/25 07:13:21;;;;;;;14.90;8.00;;;;;;;8.74;55.86;96270.72;4363140;32;20281;-62
2022/03/25 07:15:46;;;;;;;14.10;7.80;;;;;;;8.82;55.60;96270.25;4384759;32;20294;-62
2022/03/25 07:18:12;;;;;;;16.57;7.60;;;;;;;8.82;55.96;96267.59;4387644;32;20188;-62
2022/03/25 07:20:37;;;;;;;11.67;7.97;;;;;;;8.84;56.06;96273.41;4372770;32;20203;-62
2022/03/25 07:23:02;;;;;;;13.27;7.50;;;;;;;9.04;55.17;96276.16;4374192;32;20234;-62
2022/03/25 07:25:30;;;;;;;19.70;7.43;;;;;;;9.11;55.01;96271.41;4384863;32;20192;-60
2022/03/25 07:27:55;;;;;;;20.30;8.30;;;;;;;9.34;57.85;96278.09;4372391;32;20180;-60
2022/03/25 07:30:20;;;;;;;14.30;8.13;;;;;;;9.74;61.93;96271.28;4382529;32;20346;-61
2022/03/25 07:32:47;;;;;;;18.40;8.83;;;;;;;10.00;58.25;96272.84;4378355;32;20286;-60
2022/03/25 07:35:12;;;;;;;14.37;9.53;;;;;;;10.14;55.64;96276.56;4369807;32;20191;-60
2022/03/25 07:37:39;;;;;;;12.63;9.60;;;;;;;10.32;53.31;96270.75;4374548;32;20360;-60
2022/03/25 07:40:08;;;;;;;17.90;9.87;;;;;;;10.50;53.62;96272.03;4376210;32;20210;-60
2022/03/25 07:42:35;;;;;;;12.40;9.53;;;;;;;10.68;52.87;96273.31;4357593;32;20280;-60
2022/03/25 07:45:01;;;;;;;17.33;10.03;;;;;;;10.77;50.90;96276.22;4376228;32;20292;-60
2022/03/25 07:47:27;;;;;;;11.97;8.93;;;;;;;10.90;51.02;96271.12;4373247;32;20287;-61
2022/03/25 07:49:53;;;;;;;14.33;10.37;;;;;;;11.00;52.36;96281.72;4361590;32;20320;-61
2022/03/25 07:52:23;;;;;;;11.97;10.00;;;;;;;11.06;49.00;96277.16;4349641;32;20180;-60
2022/03/25 07:54:50;;;;;;;14.77;11.27;;;;;;;11.09;47.89;96278.47;4321115;32;20317;-60
2022/03/25 07:57:15;;;;;;;17.27;11.97;;;;;;;10.95;46.19;96276.41;4331075;32;20387;-59
2022/03/25 07:59:42;;;;;;;11.27;10.17;;;;;;;10.90;47.04;96280.94;4331573;32;20289;-61
2022/03/25 08:02:11;;;;;;;17.50;12.87;;;;;;;11.01;47.63;96283.28;4358120;32;20290;-60
2022/03/25 08:04:38;;;;;;;15.03;11.70;;;;;;;11.09;48.76;96278.47;4355407;32;20285;-60
2022/03/25 08:07:08;;;;;;;14.27;10.43;;;;;;;11.27;47.12;96281.31;4373462;32;20276;-60
2022/03/25 08:09:36;;;;;;;15.57;10.37;;;;;;;11.40;50.52;96282.59;4337602;32;20293;-60
2022/03/25 08:12:05;;;;;;;13.30;10.53;;;;;;;11.51;52.15;96284.09;4364762;32;20318;-60
2022/03/25 08:14:34;;;;;;;15.73;12.63;;;;;;;11.61;51.80;96280.59;4343889;32;20292;-57
2022/03/25 08:17:02;;;;;;;16.73;11.90;;;;;;;11.37;45.63;96288.44;4341666;32;20323;-58
2022/03/25 08:19:30;;;;;;;16.63;11.80;;;;;;;11.62;46.63;96288.31;4362003;32;20287;-58
2022/03/25 08:21:57;;;;;;;14.63;11.57;;;;;;;11.67;48.77;96290.09;4374925;32;20273;-58
2022/03/25 08:29:54;;;;;;;14.50;11.53;;;;;;;11.93;44.99;96282.78;4366969;32;20315;-59
2022/03/25 08:32:24;;;;;;;14.87;12.13;;;;;;;12.04;49.27;96287.75;4353100;32;20197;-59
2022/03/25 08:34:54;;;;;;;16.40;12.90;;;;;;;12.17;46.32;96293.50;4303071;32;20280;-58
2022/03/25 08:37:19;;;;;;;17.83;12.97;;;;;;;11.95;43.55;96291.28;4294077;32;20363;-59
2022/03/25 08:39:46;;;;;;;19.93;12.17;;;;;;;11.97;44.50;96294.47;4324732;32;20278;-59
2022/03/25 08:42:12;;;;;;;14.10;11.77;;;;;;;12.20;47.00;96285.78;4361009;32;20255;-58
2022/03/25 08:44:40;;;;;;;16.67;13.90;;;;;;;12.14;45.93;96294.84;4352074;32;20177;-60
2022/03/25 08:47:10;;;;;;;15.33;13.23;;;;;;;12.15;41.97;96293.00;4318898;32;20297;-61
2022/03/25 08:49:36;;;;;;;13.83;12.43;;;;;;;12.11;42.13;96299.94;4330261;32;20220;-60
2022/03/25 08:52:02;;;;;;;18.47;12.53;;;;;;;12.03;41.98;96298.69;4346628;32;20229;-60
2022/03/25 08:54:27;;;;;;;17.20;13.47;;;;;;;11.96;41.70;96296.31;4332856;32;20190;-59
2022/03/25 08:56:55;;;;;;;16.13;13.57;;;;;;;11.91;41.84;96300.88;4341903;32;20195;-60
2022/03/25 08:59:23;;;;;;;23.73;13.90;;;;;;;12.05;41.49;96296.53;4317978;32;20198;-60
2022/03/25 09:01:50;;;;;;;15.73;12.90;;;;;;;12.06;41.25;96298.09;4347218;32;20189;-60
2022/03/25 09:04:17;;;;;;;17.60;13.33;;;;;;;12.18;41.18;96298.56;4344925;32;20220;-60
2022/03/25 09:06:43;;;;;;;14.93;13.10;;;;;;;12.26;40.27;96297.94;4346853;32;20200;-61
2022/03/25 09:09:10;;;;;;;16.90;13.80;;;;;;;12.40;39.85;96298.09;4324688;32;20353;-60
2022/03/25 09:11:36;;;;;;;15.80;13.70;;;;;;;12.37;40.86;96296.78;4360326;32;20261;-60
2022/03/25 09:14:03;;;;;;;19.53;14.33;;;;;;;12.49;39.55;96298.25;4323033;32;20239;-60
2022/03/25 09:16:30;;;;;;;19.00;14.40;;;;;;;12.50;39.23;96300.66;4334768;32;20185;-60
2022/03/25 09:18:58;;;;;;;16.33;14.17;;;;;;;12.53;39.32;96296.63;4349208;32;20205;-60
2022/03/25 09:21:23;;;;;;;18.67;13.70;;;;;;;12.63;38.83;96294.69;4351507;32;20208;-59
2022/03/25 09:23:51;;;;;;;18.60;14.00;;;;;;;12.64;38.82;96293.59;4366535;32;20269;-59
2022/03/25 09:26:18;;;;;;;16.57;14.77;;;;;;;12.64;40.37;96292.81;4342936;32;20287;-58
2022/03/25 09:28:45;;;;;;;17.40;13.97;;;;;;;12.80;39.09;96291.56;4351523;32;20198;-59
2022/03/25 09:31:15;;;;;;;16.53;13.80;;;;;;;12.87;38.55;96291.25;4346068;32;20213;-59
2022/03/25 09:33:45;;;;;;;18.03;15.27;;;;;;;12.92;38.76;96291.97;4324877;32;20428;-59
2022/03/25 09:36:13;;;;;;;19.57;14.40;;;;;;;13.07;38.96;96288.34;4322128;32;20236;-59
2022/03/25 09:38:42;;;;;;;19.27;14.83;;;;;;;13.12;38.37;96285.59;4331281;32;20200;-61
2022/03/25 09:41:09;;;;;;;18.23;14.87;;;;;;;13.37;36.97;96295.97;4344756;32;20227;-59
2022/03/25 09:43:40;;;;;;;20.53;15.63;;;;;;;13.42;37.05;96297.78;4346224;32;20212;-58
2022/03/25 09:46:09;;;;;;;18.27;14.53;;;;;;;13.45;36.56;96291.88;4332224;32;20184;-58
2022/03/25 09:48:39;;;;;;;20.10;13.77;;;;;;;13.45;36.91;96301.75;4343616;32;20207;-58
2022/03/25 09:51:08;;;;;;;18.63;14.97;;;;;;;13.49;36.96;96289.44;4345767;32;20180;-58
2022/03/25 09:53:36;;;;;;;18.63;15.37;;;;;;;13.70;35.08;96294.22;4362492;32;20189;-58
2022/03/25 09:56:07;;;;;;;17.03;15.10;;;;;;;13.75;35.06;96283.44;4331103;32;20269;-60
2022/03/25 09:58:34;;;;;;;21.50;14.03;;;;;;;13.74;35.61;96292.53;4359947;32;20205;-57
2022/03/25 10:00:59;;;;;;;19.73;15.43;;;;;;;13.84;36.35;96293.47;4346018;32;20314;-56
2022/03/25 10:03:37;;;;;;;24.90;15.77;;;;;;;13.90;35.76;96284.31;4338923;32;20190;-54
2022/03/25 10:06:10;;;;;;;20.90;16.27;;;;;;;14.18;34.82;96282.53;4338390;32;20221;-58
2022/03/25 10:08:38;;;;;;;20.13;15.60;;;;;;;14.01;35.72;96283.06;4348372;32;20189;-58
2022/03/25 10:11:27;;;;;;;18.73;16.10;;;;;;;14.23;34.80;96283.25;4351392;32;20189;-57
2022/03/25 10:14:39;;;;;;;19.40;15.70;;;;;;;14.34;34.59;96286.53;4354562;32;20279;-57
2022/03/25 10:17:08;;;;;;;23.97;15.77;;;;;;;14.41;34.90;96282.41;4360079;32;20203;-57
2022/03/25 10:19:46;;;;;;;26.60;20.50;;;;;;;14.44;35.28;96273.03;4337840;32;20201;-57
2022/03/25 10:22:23;;;;;;;26.73;19.37;;;;;;;14.53;35.00;96273.16;4333435;32;20204;-57
2022/03/25 10:24:53;;;;;;;23.20;17.67;;;;;;;14.59;35.24;96271.97;4358275;32;20267;-55
2022/03/25 10:27:29;;;;;;;20.10;16.57;;;;;;;14.79;34.67;96274.25;4361194;32;20284;-55
2022/03/25 10:29:56;;;;;;;23.67;16.53;;;;;;;14.88;34.63;96280.50;4316548;32;20204;-57
2022/03/25 10:32:28;;;;;;;25.83;17.47;;;;;;;14.97;34.46;96273.37;4360430;32;20199;-56
2022/03/25 10:35:13;;;;;;;21.83;16.37;;;;;;;14.94;33.68;96271.31;4366958;32;20223;-57
2022/03/25 10:38:02;;;;;;;21.00;16.87;;;;;;;14.93;32.87;96276.94;4350478;32;20264;-57
2022/03/25 10:40:27;;;;;;;22.13;16.80;;;;;;;14.90;32.69;96283.69;4346580;32;20243;-59
2022/03/25 10:43:09;;;;;;;19.07;15.73;;;;;;;14.89;33.31;96275.97;4345207;32;20200;-59
2022/03/25 10:45:41;;;;;;;25.73;16.70;;;;;;;14.95;35.52;96275.56;4349700;32;20186;-57
2022/03/25 10:48:24;;;;;;;20.70;16.67;;;;;;;15.01;35.03;96271.69;4327119;32;20185;-59
2022/03/25 10:51:19;;;;;;;19.63;16.30;;;;;;;15.07;34.21;96267.03;4330535;32;20351;-59
2022/03/25 10:53:47;;;;;;;21.37;15.73;;;;;;;15.10;35.41;96272.59;4325422;32;20255;-58
2022/03/25 10:56:14;;;;;;;19.40;15.80;;;;;;;15.30;33.49;96275.94;4346849;32;20200;-54
2022/03/25 10:58:50;;;;;;;18.63;14.47;;;;;;;15.41;32.53;96266.59;4346701;32;20176;-58
2022/03/25 11:01:17;;;;;;;18.93;14.87;;;;;;;15.38;32.47;96277.91;4349029;32;20192;-55
2022/03/25 11:03:44;;;;;;;21.57;17.37;;;;;;;15.35;34.06;96270.50;4357745;32;20177;-53
2022/03/25 11:06:18;;;;;;;19.07;16.07;;;;;;;15.31;33.97;96266.81;4300235;33;20249;-57
2022/03/25 11:08:46;;;;;;;21.63;17.67;;;;;;;15.25;35.98;96268.00;4333255;32;20191;-55
2022/03/25 11:11:17;;;;;;;21.70;18.00;;;;;;;15.40;34.96;96262.34;4295055;32;20232;-56
2022/03/25 11:13:50;;;;;;;27.67;18.87;;;;;;;15.65;34.15;96259.13;4312251;32;20265;-57
2022/03/25 11:16:19;;;;;;;20.83;17.43;;;;;;;15.74;33.97;96252.00;4329365;33;20186;-56
2022/03/25 11:18:50;;;;;;;22.50;18.73;;;;;;;15.77;35.36;96255.94;4325226;33;20181;-58
2022/03/25 11:21:22;;;;;;;18.83;16.93;;;;;;;15.74;34.19;96252.00;4328877;32;20193;-58
2022/03/25 11:23:54;;;;;;;20.33;17.20;;;;;;;15.85;33.09;96257.09;4320728;32;20204;-58
2022/03/25 11:26:43;;;;;;;22.47;17.03;;;;;;;15.70;33.23;96256.34;4334488;32;20323;-56
2022/03/25 11:29:13;;;;;;;21.43;16.57;;;;;;;15.68;32.60;96253.19;4341762;32;20201;-58
2022/03/25 11:32:04;;;;;;;18.73;16.47;;;;;;;15.70;32.20;96252.88;4326989;32;20240;-59
2022/03/25 11:34:51;;;;;;;20.37;15.00;;;;;;;15.76;32.26;96246.34;4351925;32;20205;-58
2022/03/25 11:37:36;;;;;;;19.00;16.53;;;;;;;15.71;32.94;96244.56;4359424;32;20284;-58
2022/03/25 11:40:25;;;;;;;17.87;15.97;;;;;;;15.82;32.32;96245.91;4321334;32;20209;-58